Time;durP1;ratioP1;P1;durP2;ratioP2;P2;SDS_P1;SDS_P2;PMS_P1;PMS_P2;Temp;Humidity;BMP_temperature;BMP_pressure;BME280_temperature;BME280_humidity;BME280_pressure;Samples;Min_cycle;Max_cycle;Signal;HPM_P1;HPM_P2
2023/06/13 00:00:46;;;;;;;8.55;5.13;;;19.30;82.60;;;;;;5113109;28;20024;-48
2023/06/13 00:03:13;;;;;;;7.53;5.45;;;19.20;83.00;;;;;;5112723;28;20027;-49
2023/06/13 00:05:40;;;;;;;9.77;5.22;;;19.10;83.10;;;;;;5112668;28;20020;-50
2023/06/13 00:08:06;;;;;;;11.82;5.38;;;19.10;83.30;;;;;;5112597;28;20098;-50
2023/06/13 00:10:31;;;;;;;9.30;5.65;;;19.00;83.30;;;;;;5112832;28;20112;-54
2023/06/13 00:12:57;;;;;;;9.93;6.38;;;19.00;83.30;;;;;;5094208;28;20016;-53
2023/06/13 00:15:23;;;;;;;9.25;6.57;;;19.00;83.70;;;;;;5112357;28;20043;-53
2023/06/13 00:17:49;;;;;;;6.75;5.15;;;18.90;83.60;;;;;;5094442;28;20023;-50
2023/06/13 00:20:15;;;;;;;15.95;5.63;;;18.90;83.50;;;;;;5112472;28;20433;-52
2023/06/13 00:22:41;;;;;;;8.40;5.60;;;18.80;83.40;;;;;;5112233;28;20016;-51
2023/06/13 00:25:07;;;;;;;7.30;5.15;;;18.70;83.50;;;;;;5112259;28;20102;-50
2023/06/13 00:27:33;;;;;;;7.68;5.90;;;18.70;83.50;;;;;;5112510;28;20035;-55
2023/06/13 00:29:59;;;;;;;7.97;5.35;;;18.70;83.30;;;;;;5112529;28;20426;-50
2023/06/13 00:32:25;;;;;;;11.02;5.35;;;18.60;83.50;;;;;;5112098;28;20016;-49
2023/06/13 00:34:50;;;;;;;8.57;5.82;;;18.60;83.60;;;;;;5112004;28;20051;-52
2023/06/13 00:37:16;;;;;;;5.47;4.72;;;18.60;83.70;;;;;;5111327;28;20070;-51
2023/06/13 00:39:42;;;;;;;5.07;4.60;;;18.50;83.70;;;;;;5112527;28;20099;-53
2023/06/13 00:42:08;;;;;;;6.18;5.28;;;18.50;83.90;;;;;;5111944;28;20571;-53
2023/06/13 00:44:34;;;;;;;6.10;4.88;;;18.60;84.00;;;;;;5111920;28;20069;-49
2023/06/13 00:47:02;;;;;;;9.38;5.78;;;18.60;83.50;;;;;;5112012;28;20471;-50
2023/06/13 00:49:28;;;;;;;5.32;4.70;;;18.50;83.80;;;;;;5112342;28;20410;-49
2023/06/13 00:51:57;;;;;;;11.35;5.00;;;18.50;84.00;;;;;;5111599;28;20023;-49
2023/06/13 00:54:23;;;;;;;6.78;4.90;;;18.40;84.20;;;;;;5093487;28;20058;-49
2023/06/13 00:56:49;;;;;;;11.73;5.10;;;18.50;84.10;;;;;;5112135;28;20084;-51
2023/06/13 00:59:17;;;;;;;13.60;5.25;;;18.50;84.00;;;;;;5112077;28;20031;-51
2023/06/13 01:01:43;;;;;;;6.00;5.00;;;18.50;83.90;;;;;;5111364;28;20035;-50
2023/06/13 01:04:09;;;;;;;9.32;4.93;;;18.50;84.00;;;;;;5111764;28;20084;-50
2023/06/13 01:06:40;;;;;;;7.50;5.13;;;18.40;83.90;;;;;;5111865;28;20111;-49
2023/06/13 01:09:06;;;;;;;5.10;4.60;;;18.50;83.80;;;;;;5111995;28;20039;-50
2023/06/13 01:12:06;;;;;;;6.95;4.63;;;18.50;84.40;;;;;;5111575;28;20056;-49
2023/06/13 01:14:40;;;;;;;7.72;5.85;;;18.50;83.90;;;;;;5111893;28;20032;-51
2023/06/13 01:17:14;;;;;;;6.40;4.97;;;18.40;84.10;;;;;;5111848;28;20016;-55
2023/06/13 01:19:43;;;;;;;7.03;5.10;;;18.50;84.10;;;;;;5111721;28;20039;-51
2023/06/13 01:22:17;;;;;;;5.38;4.88;;;18.50;84.20;;;;;;5111417;28;20027;-55
2023/06/13 01:25:10;;;;;;;6.53;4.82;;;18.50;84.10;;;;;;5093161;28;20024;-53
2023/06/13 01:27:38;;;;;;;6.93;5.10;;;18.50;84.20;;;;;;5111614;28;20058;-53
2023/06/13 01:30:04;;;;;;;5.90;4.95;;;18.40;84.00;;;;;;5111553;28;20081;-53
2023/06/13 01:32:32;;;;;;;9.95;4.60;;;18.40;84.00;;;;;;5111336;28;20490;-55
2023/06/13 01:34:59;;;;;;;5.38;4.70;;;18.30;84.20;;;;;;5093216;28;20406;-51
2023/06/13 01:37:25;;;;;;;5.78;4.18;;;18.30;84.00;;;;;;5110589;28;20435;-52
2023/06/13 01:39:51;;;;;;;6.85;4.53;;;18.30;83.90;;;;;;5111539;28;20096;-49
2023/06/13 01:42:16;;;;;;;8.25;4.93;;;18.30;83.60;;;;;;5111248;28;20600;-50
2023/06/13 01:44:42;;;;;;;9.68;4.78;;;18.30;83.60;;;;;;5111233;28;20020;-51
2023/06/13 01:47:12;;;;;;;12.40;4.40;;;18.30;83.30;;;;;;5111324;28;20027;-50
2023/06/13 01:50:07;;;;;;;7.05;4.65;;;18.30;83.40;;;;;;5093482;28;20019;-51
2023/06/13 01:52:41;;;;;;;6.72;4.40;;;18.30;83.40;;;;;;5111072;28;20019;-52
2023/06/13 01:55:22;;;;;;;4.63;4.22;;;18.30;83.80;;;;;;5111152;28;20023;-55
2023/06/13 01:58:07;;;;;;;7.03;5.10;;;18.40;83.70;;;;;;5111533;28;20547;-52
2023/06/13 02:00:33;;;;;;;8.00;4.57;;;18.40;84.10;;;;;;5111774;28;20483;-53
2023/06/13 02:03:00;;;;;;;6.35;4.65;;;18.30;84.50;;;;;;5110989;28;20084;-51
2023/06/13 02:05:26;;;;;;;5.60;4.78;;;18.20;84.40;;;;;;5113809;28;20019;-51
2023/06/13 02:07:53;;;;;;;10.32;5.00;;;18.20;85.00;;;;;;5116019;28;20581;-51
2023/06/13 02:10:19;;;;;;;6.75;4.85;;;18.20;85.00;;;;;;5115108;28;20016;-49
2023/06/13 02:12:44;;;;;;;8.55;5.53;;;18.10;85.50;;;;;;5114747;28;20039;-50
2023/06/13 02:15:10;;;;;;;6.53;4.93;;;18.00;85.30;;;;;;5114762;28;20031;-51
2023/06/13 02:17:36;;;;;;;10.55;5.18;;;18.00;85.60;;;;;;5115167;28;20116;-51
2023/06/13 02:20:01;;;;;;;5.55;4.68;;;18.00;85.90;;;;;;5115045;28;20521;-54
2023/06/13 02:22:27;;;;;;;5.80;4.72;;;17.90;85.90;;;;;;5114597;28;20084;-53
2023/06/13 02:24:53;;;;;;;10.30;5.82;;;17.90;86.10;;;;;;5114614;28;20031;-50
2023/06/13 02:27:18;;;;;;;5.72;4.35;;;17.90;86.10;;;;;;5114785;28;20120;-53
2023/06/13 02:29:44;;;;;;;5.32;4.70;;;17.90;86.10;;;;;;5114615;28;20111;-54
2023/06/13 02:32:09;;;;;;;11.45;5.15;;;17.90;86.30;;;;;;5114173;28;20429;-54
2023/06/13 02:34:35;;;;;;;7.38;4.72;;;17.80;86.30;;;;;;5114257;28;20024;-50
2023/06/13 02:37:00;;;;;;;12.15;6.22;;;17.80;86.30;;;;;;5113427;28;20027;-53
2023/06/13 02:39:26;;;;;;;8.15;5.13;;;17.70;86.20;;;;;;5114572;28;20016;-49
2023/06/13 02:41:52;;;;;;;7.93;4.72;;;17.70;86.40;;;;;;5114240;28;20055;-49
2023/06/13 02:44:17;;;;;;;5.63;5.03;;;17.60;86.50;;;;;;5114141;28;20023;-49
2023/06/13 02:46:42;;;;;;;6.75;4.78;;;17.70;86.80;;;;;;5114398;28;20023;-50
2023/06/13 02:49:09;;;;;;;11.70;6.10;;;17.60;87.00;;;;;;5114592;28;19993;-48
2023/06/13 02:51:35;;;;;;;8.70;4.93;;;17.50;87.50;;;;;;5113994;28;20024;-48
2023/06/13 02:54:00;;;;;;;5.57;5.03;;;17.40;87.70;;;;;;5114051;28;20030;-52
2023/06/13 02:56:26;;;;;;;6.43;4.53;;;17.40;87.80;;;;;;5114576;28;20027;-50
2023/06/13 02:58:51;;;;;;;5.70;4.53;;;17.40;87.90;;;;;;5114151;28;20044;-50
2023/06/13 03:01:18;;;;;;;6.85;4.70;;;17.40;88.00;;;;;;5114242;28;20027;-49
2023/06/13 03:03:47;;;;;;;7.50;4.60;;;17.30;88.10;;;;;;5113421;28;20034;-53
2023/06/13 03:06:16;;;;;;;5.88;4.47;;;17.40;88.30;;;;;;5114134;28;20015;-52
2023/06/13 03:08:42;;;;;;;6.22;4.80;;;17.30;88.60;;;;;;5113969;28;20026;-54
2023/06/13 03:11:07;;;;;;;7.30;4.35;;;17.30;88.70;;;;;;5114088;28;20095;-53
2023/06/13 03:13:33;;;;;;;7.10;4.78;;;17.20;88.70;;;;;;5113365;28;20089;-50
2023/06/13 03:16:01;;;;;;;5.50;4.80;;;17.20;88.90;;;;;;5112561;28;20015;-48
2023/06/13 03:18:26;;;;;;;7.85;4.82;;;17.10;89.10;;;;;;5113581;28;20045;-48
2023/06/13 03:20:52;;;;;;;9.95;4.70;;;17.00;89.40;;;;;;5095658;28;20028;-52
2023/06/13 03:23:17;;;;;;;6.60;4.78;;;16.90;89.70;;;;;;5113474;28;20069;-48
2023/06/13 03:25:44;;;;;;;6.65;4.70;;;16.90;90.00;;;;;;5113525;28;20039;-51
2023/06/13 03:28:10;;;;;;;11.93;5.50;;;16.80;90.10;;;;;;5113652;28;20102;-50
2023/06/13 03:30:36;;;;;;;6.65;5.00;;;16.70;90.20;;;;;;5113822;28;20491;-50
2023/06/13 03:33:01;;;;;;;7.43;5.32;;;16.80;90.30;;;;;;5113161;28;20023;-54
2023/06/13 03:35:27;;;;;;;6.15;4.75;;;16.70;90.50;;;;;;5113237;28;20032;-51
2023/06/13 03:37:53;;;;;;;7.90;4.55;;;16.70;90.70;;;;;;5094411;28;20019;-53
2023/06/13 03:40:18;;;;;;;7.57;5.20;;;16.70;90.80;;;;;;5113431;28;20517;-49
2023/06/13 03:42:44;;;;;;;7.57;5.10;;;16.60;90.90;;;;;;5113084;28;20046;-49
2023/06/13 03:45:09;;;;;;;7.50;5.45;;;16.60;91.10;;;;;;5113061;28;20483;-48
2023/06/13 03:47:35;;;;;;;13.10;5.45;;;16.50;91.20;;;;;;5113390;28;20032;-50
2023/06/13 03:50:01;;;;;;;5.30;4.80;;;16.50;91.50;;;;;;5113248;28;20410;-49
2023/06/13 03:52:26;;;;;;;5.95;5.00;;;16.50;91.60;;;;;;5112829;28;20016;-51
2023/06/13 03:54:52;;;;;;;7.32;5.70;;;16.50;91.80;;;;;;5112958;28;20498;-49
2023/06/13 03:57:18;;;;;;;12.55;5.65;;;16.50;92.00;;;;;;5112874;28;20108;-52
2023/06/13 03:59:43;;;;;;;10.00;5.10;;;16.40;92.10;;;;;;5112987;28;20020;-52
2023/06/13 04:02:10;;;;;;;6.22;5.15;;;16.40;92.30;;;;;;5112774;28;20020;-50
2023/06/13 04:04:36;;;;;;;7.85;4.72;;;16.40;92.30;;;;;;5112746;28;20077;-51
2023/06/13 04:07:05;;;;;;;10.38;4.90;;;16.30;92.50;;;;;;5112860;28;20077;-50
2023/06/13 04:09:31;;;;;;;10.65;5.57;;;16.30;92.50;;;;;;5113102;28;20054;-48
2023/06/13 04:11:57;;;;;;;7.13;5.65;;;16.30;92.60;;;;;;5112651;28;20051;-51
2023/06/13 04:14:22;;;;;;;5.97;4.88;;;16.30;92.60;;;;;;5112291;28;20447;-51
2023/06/13 04:16:48;;;;;;;13.38;5.35;;;16.40;92.60;;;;;;5112663;28;20023;-49
2023/06/13 04:19:18;;;;;;;6.20;5.05;;;16.40;92.80;;;;;;5112586;28;20024;-50
2023/06/13 04:21:45;;;;;;;5.72;4.55;;;16.40;92.90;;;;;;5112333;28;20085;-52
2023/06/13 04:24:12;;;;;;;6.05;4.82;;;16.50;92.90;;;;;;5112421;28;20024;-54
2023/06/13 04:26:38;;;;;;;7.28;4.90;;;16.50;92.90;;;;;;5112296;28;20016;-53
2023/06/13 04:29:03;;;;;;;5.50;4.55;;;16.60;92.80;;;;;;5112053;28;20032;-54
2023/06/13 04:31:34;;;;;;;9.73;4.90;;;16.60;92.80;;;;;;5112054;28;20027;-51
2023/06/13 04:34:03;;;;;;;8.52;5.18;;;16.70;92.80;;;;;;5112103;28;20066;-49
2023/06/13 04:36:32;;;;;;;8.40;5.18;;;16.80;92.60;;;;;;5112688;28;20012;-52
2023/06/13 04:39:01;;;;;;;13.80;5.03;;;17.00;92.60;;;;;;5111199;28;20035;-51
2023/06/13 04:41:27;;;;;;;7.60;4.50;;;17.10;92.40;;;;;;5112232;28;20490;-50
2023/06/13 04:43:53;;;;;;;7.60;5.05;;;17.30;92.10;;;;;;5111389;28;20019;-53
2023/06/13 04:46:18;;;;;;;7.03;4.43;;;17.40;91.80;;;;;;5112099;28;20026;-50
2023/06/13 04:48:44;;;;;;;6.80;5.47;;;17.50;91.70;;;;;;5112520;28;20035;-51
2023/06/13 04:51:09;;;;;;;7.78;4.82;;;17.60;91.70;;;;;;5112066;28;20019;-53
2023/06/13 04:53:37;;;;;;;8.23;4.35;;;17.70;91.50;;;;;;5111439;28;20110;-54
2023/06/13 04:56:04;;;;;;;12.52;4.72;;;17.90;91.30;;;;;;5112112;28;20023;-53
2023/06/13 04:58:29;;;;;;;6.78;4.65;;;18.20;90.90;;;;;;5112038;28;20479;-52
2023/06/13 05:00:57;;;;;;;10.13;4.80;;;18.40;90.30;;;;;;5112236;28;20038;-49
2023/06/13 05:03:25;;;;;;;5.57;4.65;;;18.60;90.20;;;;;;5111776;28;20067;-50
2023/06/13 05:05:51;;;;;;;5.68;4.22;;;18.80;89.70;;;;;;5112046;28;20065;-50
2023/06/13 05:08:21;;;;;;;10.40;4.57;;;19.00;88.60;;;;;;5112134;28;20408;-54
2023/06/13 05:10:46;;;;;;;4.28;3.88;;;19.30;87.90;;;;;;5112103;28;20031;-53
2023/06/13 05:13:12;;;;;;;6.20;3.95;;;19.50;87.00;;;;;;5111578;28;20034;-51
2023/06/13 05:15:38;;;;;;;6.28;4.47;;;19.70;86.50;;;;;;5111739;28;20027;-53
2023/06/13 05:18:07;;;;;;;5.65;5.03;;;19.80;86.40;;;;;;5111827;28;20073;-52
2023/06/13 05:20:33;;;;;;;11.00;4.60;;;20.00;86.00;;;;;;5112547;22;20383;-48
2023/06/13 05:23:01;;;;;;;11.65;4.00;;;20.30;85.50;;;;;;5111213;28;20030;-51
2023/06/13 05:25:27;;;;;;;5.60;4.78;;;20.60;84.80;;;;;;5111191;28;20016;-47
2023/06/13 05:27:53;;;;;;;12.27;4.68;;;21.00;84.10;;;;;;5111754;28;20380;-46
2023/06/13 05:30:20;;;;;;;7.78;4.20;;;21.20;83.80;;;;;;5111587;28;20020;-46
2023/06/13 05:32:45;;;;;;;11.30;4.22;;;21.60;82.70;;;;;;5111303;28;20024;-46
2023/06/13 05:35:11;;;;;;;15.82;5.35;;;21.90;80.90;;;;;;5093157;28;20023;-44
2023/06/13 05:37:37;;;;;;;9.35;3.90;;;22.20;79.70;;;;;;5110855;28;20115;-44
2023/06/13 05:40:04;;;;;;;22.58;4.30;;;22.30;79.30;;;;;;5113718;28;20024;-44
2023/06/13 05:42:31;;;;;;;8.52;4.47;;;22.60;78.20;;;;;;5115300;28;20519;-47
2023/06/13 05:44:57;;;;;;;13.55;3.83;;;22.70;78.40;;;;;;5116257;28;20032;-45
2023/06/13 05:47:22;;;;;;;11.88;4.10;;;22.90;77.50;;;;;;5115931;28;20036;-46
2023/06/13 05:49:47;;;;;;;7.00;3.80;;;22.90;76.90;;;;;;5115534;28;20023;-47
2023/06/13 05:52:13;;;;;;;14.45;4.45;;;22.90;76.80;;;;;;5115228;28;20045;-45
2023/06/13 05:54:38;;;;;;;6.80;4.00;;;23.20;76.40;;;;;;5115346;28;20027;-43
2023/06/13 05:57:04;;;;;;;10.23;3.88;;;23.50;75.50;;;;;;5115413;28;20019;-48
2023/06/13 05:59:30;;;;;;;13.43;4.72;;;23.60;75.10;;;;;;5115317;28;20027;-44
2023/06/13 06:01:55;;;;;;;13.05;4.00;;;23.70;74.60;;;;;;5096481;28;20490;-47
2023/06/13 06:04:21;;;;;;;8.38;4.07;;;23.70;74.50;;;;;;5115001;28;20023;-44
2023/06/13 06:06:47;;;;;;;12.93;4.75;;;23.70;73.70;;;;;;5115424;28;20028;-50
2023/06/13 06:09:12;;;;;;;9.20;4.15;;;23.90;73.90;;;;;;5096689;28;20348;-47
2023/06/13 06:11:38;;;;;;;12.02;3.80;;;24.20;72.80;;;;;;5096557;28;20024;-44
2023/06/13 06:14:03;;;;;;;11.00;4.85;;;24.10;72.70;;;;;;5096401;28;20024;-46
2023/06/13 06:16:29;;;;;;;11.80;4.03;;;24.50;72.50;;;;;;5114938;28;20046;-47
2023/06/13 06:18:55;;;;;;;13.63;3.88;;;24.50;72.50;;;;;;5115045;28;20027;-47
2023/06/13 06:21:20;;;;;;;6.90;3.53;;;24.90;71.10;;;;;;5115015;28;20024;-45
2023/06/13 06:23:46;;;;;;;11.45;3.70;;;25.10;70.80;;;;;;5095959;28;20059;-44
2023/06/13 06:26:11;;;;;;;10.20;3.20;;;25.20;69.80;;;;;;5096392;28;20039;-44
2023/06/13 06:28:39;;;;;;;11.80;3.60;;;25.00;69.70;;;;;;5114763;28;20039;-47
2023/06/13 06:31:09;;;;;;;7.57;3.42;;;24.90;70.80;;;;;;5114890;28;20106;-44
2023/06/13 06:33:35;;;;;;;11.88;4.80;;;25.00;69.40;;;;;;5114487;28;20027;-45
2023/06/13 06:36:01;;;;;;;12.43;3.53;;;25.40;69.30;;;;;;5115250;28;20066;-49
2023/06/13 06:38:26;;;;;;;3.90;3.25;;;25.60;68.20;;;;;;5113870;28;20037;-46
2023/06/13 06:40:52;;;;;;;4.55;3.70;;;25.80;68.20;;;;;;5114620;28;20475;-49
2023/06/13 06:43:17;;;;;;;4.40;3.22;;;26.10;67.70;;;;;;5114344;28;20034;-47
2023/06/13 06:45:43;;;;;;;7.82;4.18;;;26.60;67.80;;;;;;5115190;28;20024;-45
2023/06/13 06:48:08;;;;;;;7.05;3.05;;;26.90;66.20;;;;;;5115589;28;20027;-47
2023/06/13 06:50:34;;;;;;;6.80;3.17;;;26.90;65.50;;;;;;5114251;28;20380;-49
2023/06/13 06:52:59;;;;;;;6.63;3.17;;;26.50;65.80;;;;;;5113915;28;20028;-47
2023/06/13 06:55:25;;;;;;;7.07;3.60;;;27.00;66.20;;;;;;5113931;28;20479;-46
2023/06/13 06:57:53;;;;;;;6.63;3.42;;;27.50;66.20;;;;;;5114247;28;20032;-45
2023/06/13 07:00:19;;;;;;;7.10;2.72;;;27.80;65.00;;;;;;5113998;28;20119;-48
2023/06/13 07:02:45;;;;;;;7.10;3.28;;;28.10;64.20;;;;;;5113685;28;20072;-45
2023/06/13 07:05:11;;;;;;;4.35;3.28;;;28.20;64.00;;;;;;5113694;28;20019;-46
2023/06/13 07:07:36;;;;;;;6.10;3.65;;;27.70;63.30;;;;;;5114819;28;20028;-46
2023/06/13 07:10:03;;;;;;;4.90;2.90;;;28.00;64.60;;;;;;5114617;28;20345;-45
2023/06/13 07:12:32;;;;;;;9.32;3.63;;;28.30;63.80;;;;;;5112442;28;20069;-44
2023/06/13 07:14:58;;;;;;;7.65;3.05;;;28.30;63.50;;;;;;5110128;28;20023;-47
2023/06/13 07:17:24;;;;;;;7.78;3.08;;;28.70;63.80;;;;;;5113746;28;20032;-50
2023/06/13 07:19:49;;;;;;;7.28;3.08;;;29.10;61.80;;;;;;5094940;28;20418;-45
2023/06/13 07:22:15;;;;;;;4.25;2.80;;;29.30;61.10;;;;;;5113431;28;20035;-47
2023/06/13 07:24:40;;;;;;;11.32;4.25;;;29.10;61.50;;;;;;5113454;28;20039;-46
2023/06/13 07:27:06;;;;;;;4.70;2.95;;;29.00;61.40;;;;;;5112424;28;20031;-47
2023/06/13 07:29:32;;;;;;;7.47;3.53;;;29.40;61.90;;;;;;5113905;28;20430;-45
2023/06/13 07:31:57;;;;;;;7.03;3.47;;;29.70;61.00;;;;;;5114270;28;20027;-51
2023/06/13 07:34:23;;;;;;;4.13;3.10;;;29.20;62.20;;;;;;5113225;28;20027;-47
2023/06/13 07:36:48;;;;;;;5.05;2.80;;;29.50;61.60;;;;;;5113871;28;20583;-48
2023/06/13 07:39:14;;;;;;;4.90;2.63;;;28.80;61.40;;;;;;5095095;28;20110;-50
2023/06/13 07:41:40;;;;;;;6.38;2.75;;;29.50;61.00;;;;;;5112917;28;20483;-51
2023/06/13 07:44:06;;;;;;;7.53;2.88;;;29.60;59.90;;;;;;5094462;28;20027;-48
2023/06/13 07:46:31;;;;;;;4.47;2.95;;;29.20;59.40;;;;;;5113372;28;20020;-49
2023/06/13 07:48:57;;;;;;;15.75;3.03;;;28.70;59.10;;;;;;5114302;28;20028;-46
2023/06/13 07:51:24;;;;;;;6.90;2.67;;;28.90;60.40;;;;;;5114888;28;20089;-47
2023/06/13 07:53:50;;;;;;;3.55;2.97;;;29.40;59.40;;;;;;5112778;28;20062;-49
2023/06/13 07:56:16;;;;;;;5.07;2.90;;;29.10;58.20;;;;;;5113036;28;20547;-46
2023/06/13 07:58:41;;;;;;;9.10;3.10;;;28.40;59.20;;;;;;5109796;28;20115;-49
2023/06/13 08:01:07;;;;;;;3.05;2.55;;;28.40;59.40;;;;;;5112939;28;20111;-49
2023/06/13 08:03:32;;;;;;;2.35;2.15;;;28.40;59.60;;;;;;5106617;28;20032;-51
2023/06/13 08:05:58;;;;;;;3.92;2.50;;;29.00;59.90;;;;;;5092279;28;20032;-45
2023/06/13 08:08:24;;;;;;;4.13;2.97;;;29.60;59.10;;;;;;5074334;28;20032;-45
2023/06/13 08:10:49;;;;;;;6.20;2.90;;;29.80;58.00;;;;;;5097702;28;20494;-50
2023/06/13 08:13:15;;;;;;;4.68;2.80;;;30.10;58.20;;;;;;5107893;28;20071;-41
2023/06/13 08:15:40;;;;;;;10.00;3.70;;;29.40;59.40;;;;;;5107872;28;20020;-48
2023/06/13 08:18:06;;;;;;;4.55;2.80;;;29.00;58.70;;;;;;5092217;28;20103;-47
2023/06/13 08:20:31;;;;;;;7.07;2.90;;;28.70;59.50;;;;;;5102441;28;20032;-51
2023/06/13 08:22:59;;;;;;;5.32;3.08;;;28.10;60.00;;;;;;5111995;28;20063;-45
2023/06/13 08:25:24;;;;;;;6.72;3.05;;;27.90;61.50;;;;;;5112381;28;20020;-50
2023/06/13 08:27:52;;;;;;;4.22;2.97;;;27.60;61.90;;;;;;5112186;28;20027;-45
2023/06/13 08:30:18;;;;;;;3.67;2.80;;;26.50;61.60;;;;;;5099066;28;20020;-47
2023/06/13 08:32:46;;;;;;;3.38;2.80;;;26.00;60.90;;;;;;5102197;28;20028;-54
2023/06/13 08:35:12;;;;;;;4.72;2.55;;;25.60;61.60;;;;;;5111649;28;20501;-52
2023/06/13 08:37:39;;;;;;;3.95;3.20;;;25.30;62.50;;;;;;5111750;28;20032;-49
2023/06/13 08:40:09;;;;;;;11.68;3.25;;;24.90;64.10;;;;;;5112336;28;20065;-47
2023/06/13 08:42:36;;;;;;;3.70;2.90;;;24.70;65.70;;;;;;5093818;28;20027;-48
2023/06/13 08:45:03;;;;;;;4.40;3.33;;;24.80;64.50;;;;;;5110913;28;20030;-51
2023/06/13 08:47:29;;;;;;;4.07;3.17;;;24.80;64.00;;;;;;5093157;28;20027;-49
2023/06/13 08:49:54;;;;;;;6.80;3.33;;;24.60;64.30;;;;;;5106912;28;20531;-48
2023/06/13 08:52:20;;;;;;;4.95;3.05;;;24.90;67.30;;;;;;5091192;28;20069;-49
2023/06/13 08:54:52;;;;;;;5.30;3.08;;;;;;;;;;5091494;28;20387;-49
2023/06/13 08:57:19;;;;;;;6.43;3.17;;;;;;;;;;5073055;28;20391;-46
2023/06/13 08:59:49;;;;;;;5.40;3.45;;;;;;;;;;5091387;28;20442;-49
2023/06/13 09:02:20;;;;;;;3.40;3.08;;;;;;;;;;5097251;28;20058;-50
2023/06/13 09:04:47;;;;;;;5.78;3.10;;;25.00;95.10;;;;;;5111924;28;20016;-50
2023/06/13 09:07:14;;;;;;;3.40;3.00;;;24.90;63.80;;;;;;5111812;28;20031;-50
2023/06/13 09:09:41;;;;;;;6.53;3.95;;;24.60;63.30;;;;;;5111699;28;20513;-53
2023/06/13 09:12:08;;;;;;;3.80;2.88;;;24.70;63.90;;;;;;5092803;28;20093;-46
2023/06/13 09:14:34;;;;;;;5.40;3.38;;;24.70;63.80;;;;;;5090745;28;20032;-43
2023/06/13 09:17:00;;;;;;;5.35;3.17;;;24.60;64.70;;;;;;5092772;28;20075;-49
2023/06/13 09:19:25;;;;;;;4.65;3.80;;;24.60;64.60;;;;;;5111429;28;20035;-45
2023/06/13 09:21:51;;;;;;;6.38;3.13;;;24.70;64.70;;;;;;5110799;28;20358;-46
2023/06/13 09:24:17;;;;;;;3.47;2.78;;;24.80;63.90;;;;;;5106853;28;20035;-44
2023/06/13 09:26:43;;;;;;;8.85;2.88;;;24.70;64.10;;;;;;5090887;28;20031;-52
2023/06/13 09:29:09;;;;;;;5.00;3.47;;;24.50;65.00;;;;;;5101993;28;20475;-51
2023/06/13 09:31:38;;;;;;;3.10;2.80;;;24.70;65.10;;;;;;5110001;28;20028;-46
2023/06/13 09:34:07;;;;;;;7.40;3.90;;;24.60;65.70;;;;;;5108648;28;20016;-45
2023/06/13 09:36:37;;;;;;;4.50;2.75;;;24.60;65.30;;;;;;5109343;28;20506;-45
2023/06/13 09:39:06;;;;;;;7.20;3.42;;;24.50;66.00;;;;;;5102062;28;20027;-48
2023/06/13 09:41:33;;;;;;;4.15;2.88;;;24.60;65.20;;;;;;5090914;28;20210;-49
2023/06/13 09:44:05;;;;;;;9.30;3.50;;;24.70;65.60;;;;;;5088753;28;20058;-47
2023/06/13 09:46:37;;;;;;;5.80;3.95;;;24.60;66.50;;;;;;5108558;28;20034;-42
2023/06/13 09:49:03;;;;;;;5.82;3.38;;;24.60;65.30;;;;;;5101471;28;20019;-45
2023/06/13 09:51:31;;;;;;;6.35;3.40;;;24.70;65.30;;;;;;5102010;28;20628;-44
2023/06/13 09:53:58;;;;;;;4.13;3.33;;;24.40;64.60;;;;;;5099221;28;20019;-40
2023/06/13 09:56:23;;;;;;;13.80;4.00;;;24.50;64.70;;;;;;5105898;28;20035;-44
2023/06/13 09:58:51;;;;;;;5.90;3.10;;;24.60;65.40;;;;;;5105659;28;20415;-42
2023/06/13 10:01:18;;;;;;;3.90;3.13;;;24.60;65.30;;;;;;5109564;28;20019;-40
2023/06/13 10:03:44;;;;;;;4.18;2.97;;;24.70;66.20;;;;;;5108730;28;20454;-38
2023/06/13 10:06:10;;;;;;;3.72;3.15;;;24.60;63.40;;;;;;5109758;28;20036;-47
2023/06/13 10:08:36;;;;;;;8.93;3.35;;;24.50;65.30;;;;;;5092629;28;20024;-41
2023/06/13 10:11:10;;;;;;;7.40;3.10;;;24.60;65.70;;;;;;5092204;28;20019;-42
2023/06/13 10:13:44;;;;;;;6.07;3.17;;;24.60;65.40;;;;;;5104782;28;20023;-43
2023/06/13 10:16:12;;;;;;;14.13;3.78;;;24.60;64.40;;;;;;5106275;28;20032;-42
2023/06/13 10:18:41;;;;;;;7.22;3.05;;;24.50;65.20;;;;;;5112131;28;20031;-40
2023/06/13 10:21:10;;;;;;;4.55;3.13;;;24.60;65.30;;;;;;5111754;28;20339;-43
2023/06/13 10:23:42;;;;;;;7.18;3.63;;;24.50;63.70;;;;;;5093212;28;20026;-43
2023/06/13 10:26:15;;;;;;;11.07;3.28;;;24.50;62.90;;;;;;5117387;28;20034;-44
2023/06/13 10:28:43;;;;;;;4.50;3.42;;;24.20;62.50;;;;;;5120239;28;20119;-41
2023/06/13 10:31:18;;;;;;;5.43;2.78;;;24.10;62.60;;;;;;5116464;28;20020;-40
2023/06/13 10:34:07;;;;;;;12.80;3.80;;;24.20;64.00;;;;;;5114308;28;20024;-41
2023/06/13 10:36:56;;;;;;;7.75;2.75;;;24.20;63.70;;;;;;5110193;28;20093;-41
2023/06/13 10:39:37;;;;;;;4.30;3.25;;;24.20;62.90;;;;;;5114152;28;20023;-40
2023/06/13 10:42:27;;;;;;;7.07;3.40;;;24.10;62.90;;;;;;5114651;28;20015;-39
2023/06/13 10:45:00;;;;;;;5.07;3.38;;;24.00;63.60;;;;;;5115750;27;20507;-41
2023/06/13 10:47:29;;;;;;;2.97;2.78;;;23.90;63.40;;;;;;5135727;27;20031;-38
2023/06/13 10:49:57;;;;;;;4.57;2.83;;;24.20;63.70;;;;;;5129642;27;20019;-42
2023/06/13 10:52:23;;;;;;;3.83;3.53;;;24.40;63.00;;;;;;5105114;28;20023;-41
2023/06/13 10:54:53;;;;;;;4.50;2.97;;;24.50;62.80;;;;;;5093286;28;20024;-41
2023/06/13 10:57:20;;;;;;;3.25;3.03;;;24.60;62.30;;;;;;5110923;28;20081;-46
2023/06/13 10:59:47;;;;;;;6.18;4.22;;;24.60;61.90;;;;;;5115262;28;20027;-48
2023/06/13 11:02:15;;;;;;;5.63;3.60;;;24.50;62.30;;;;;;5114161;28;20568;-40
2023/06/13 11:04:51;;;;;;;4.30;3.40;;;24.50;62.40;;;;;;5115144;28;20026;-40
2023/06/13 11:07:23;;;;;;;2.88;2.67;;;24.60;62.90;;;;;;5114055;28;20016;-42
2023/06/13 11:10:03;;;;;;;7.10;3.45;;;24.70;63.00;;;;;;5114080;28;20457;-40
2023/06/13 11:12:30;;;;;;;8.02;2.80;;;24.70;61.90;;;;;;5114985;28;20015;-41
2023/06/13 11:14:58;;;;;;;6.10;3.65;;;24.60;62.30;;;;;;5113589;28;20072;-39
2023/06/13 11:17:24;;;;;;;9.73;3.08;;;24.70;61.60;;;;;;5116386;28;20058;-43
2023/06/13 11:19:53;;;;;;;8.18;3.17;;;24.60;60.50;;;;;;5132387;22;20048;-53
2023/06/13 11:22:21;;;;;;;4.68;3.33;;;24.70;61.40;;;;;;5112995;27;20099;-48
2023/06/13 11:24:47;;;;;;;4.53;2.90;;;24.70;61.00;;;;;;5093986;28;20027;-50
2023/06/13 11:27:16;;;;;;;9.02;3.05;;;24.50;61.30;;;;;;5094752;28;20024;-49
2023/06/13 11:29:43;;;;;;;5.65;3.55;;;24.50;62.50;;;;;;5104605;28;20078;-48
2023/06/13 11:32:09;;;;;;;5.13;3.38;;;24.60;60.70;;;;;;5074553;28;20038;-52
2023/06/13 11:34:40;;;;;;;9.13;3.42;;;24.60;59.90;;;;;;5092782;28;20028;-54
2023/06/13 11:37:24;;;;;;;4.18;3.05;;;24.50;59.90;;;;;;5073716;28;20020;-48
2023/06/13 11:39:54;;;;;;;9.55;3.17;;;24.60;60.10;;;;;;5067477;28;20115;-49
2023/06/13 11:42:20;;;;;;;3.90;3.08;;;24.60;60.40;;;;;;5092834;28;20095;-51
2023/06/13 11:44:46;;;;;;;6.38;3.25;;;24.60;60.90;;;;;;5092588;28;20119;-50
2023/06/13 11:47:12;;;;;;;4.13;2.95;;;24.60;60.10;;;;;;5074404;28;20046;-51
2023/06/13 11:49:37;;;;;;;8.27;2.97;;;24.70;60.50;;;;;;5092980;28;20102;-50
2023/06/13 11:52:14;;;;;;;8.13;2.95;;;24.90;59.40;;;;;;5093007;28;20052;-52
2023/06/13 11:54:46;;;;;;;3.13;2.80;;;24.90;60.10;;;;;;5092484;28;20081;-50
2023/06/13 11:57:15;;;;;;;4.32;2.80;;;25.00;59.30;;;;;;5092381;28;20024;-48
2023/06/13 11:59:41;;;;;;;4.88;3.33;;;25.00;58.80;;;;;;5092977;28;20027;-47
2023/06/13 12:02:08;;;;;;;3.95;2.53;;;24.90;58.50;;;;;;5092548;28;20020;-52
2023/06/13 12:04:34;;;;;;;4.90;3.22;;;24.90;58.60;;;;;;5091973;28;20036;-49
2023/06/13 12:07:06;;;;;;;5.65;3.08;;;24.90;59.00;;;;;;5089989;28;20093;-53
2023/06/13 12:09:31;;;;;;;7.85;3.17;;;24.90;58.70;;;;;;5092264;28;20437;-51
2023/06/13 12:11:57;;;;;;;6.47;3.28;;;24.90;58.80;;;;;;5091805;28;20048;-49
2023/06/13 12:14:23;;;;;;;5.25;3.40;;;24.90;58.40;;;;;;5092133;28;20032;-58
2023/06/13 12:16:54;;;;;;;6.55;3.15;;;24.60;58.20;;;;;;5091619;28;20020;-54
2023/06/13 12:19:21;;;;;;;3.88;2.90;;;24.80;58.50;;;;;;5091675;28;20024;-51
2023/06/13 12:21:49;;;;;;;5.35;3.10;;;24.80;59.30;;;;;;5091790;28;20504;-55
2023/06/13 12:24:16;;;;;;;6.20;3.10;;;24.80;60.00;;;;;;5087221;28;20059;-52
2023/06/13 12:26:44;;;;;;;9.68;3.80;;;24.90;59.40;;;;;;5091606;28;20081;-48
2023/06/13 12:29:11;;;;;;;7.22;3.00;;;25.00;59.00;;;;;;5090802;28;20024;-53
2023/06/13 12:31:47;;;;;;;7.00;3.40;;;25.10;57.40;;;;;;5091681;28;20087;-48
2023/06/13 12:34:34;;;;;;;5.32;3.00;;;25.00;57.80;;;;;;5091751;28;20024;-50
2023/06/13 12:37:03;;;;;;;8.10;3.33;;;25.00;57.60;;;;;;5091895;28;20024;-51
2023/06/13 12:39:30;;;;;;;14.07;7.78;;;24.90;58.00;;;;;;5092003;28;20024;-49
2023/06/13 12:42:07;;;;;;;5.13;3.38;;;25.00;58.20;;;;;;5091495;28;20024;-55
2023/06/13 12:44:33;;;;;;;3.35;2.72;;;25.10;57.30;;;;;;5089265;28;20084;-51
2023/06/13 12:47:02;;;;;;;10.23;4.45;;;25.10;56.60;;;;;;5073029;28;20046;-49